sensor_id;sensor_type;location;lat;lon;timestamp;temperature;humidity
11538;DHT22;50159;49.426;11.182;2023-04-07T00:01:34;0.60;92.50
11538;DHT22;50159;49.426;11.182;2023-04-07T00:04:01;0.60;92.50
11538;DHT22;50159;49.426;11.182;2023-04-07T00:06:28;0.60;92.30
11538;DHT22;50159;49.426;11.182;2023-04-07T00:08:55;0.50;92.40
11538;DHT22;50159;49.426;11.182;2023-04-07T00:11:22;0.50;92.50
11538;DHT22;50159;49.426;11.182;2023-04-07T00:13:49;0.50;92.70
11538;DHT22;50159;49.426;11.182;2023-04-07T00:16:15;0.40;92.50
11538;DHT22;50159;49.426;11.182;2023-04-07T00:18:43;0.30;92.10
11538;DHT22;50159;49.426;11.182;2023-04-07T00:21:10;0.30;92.50
11538;DHT22;50159;49.426;11.182;2023-04-07T00:23:37;0.30;92.90
11538;DHT22;50159;49.426;11.182;2023-04-07T00:26:03;0.30;93.20
11538;DHT22;50159;49.426;11.182;2023-04-07T00:28:30;0.40;93.40
11538;DHT22;50159;49.426;11.182;2023-04-07T00:30:57;0.40;93.60
11538;DHT22;50159;49.426;11.182;2023-04-07T00:33:23;0.30;93.70
11538;DHT22;50159;49.426;11.182;2023-04-07T00:35:51;0.30;94.10
11538;DHT22;50159;49.426;11.182;2023-04-07T00:38:19;0.20;94.90
11538;DHT22;50159;49.426;11.182;2023-04-07T00:40:46;0.30;94.70
11538;DHT22;50159;49.426;11.182;2023-04-07T00:43:13;0.20;94.50
11538;DHT22;50159;49.426;11.182;2023-04-07T00:45:40;0.20;94.60
11538;DHT22;50159;49.426;11.182;2023-04-07T00:48:07;0.20;94.90
11538;DHT22;50159;49.426;11.182;2023-04-07T00:50:34;0.20;95.10
11538;DHT22;50159;49.426;11.182;2023-04-07T00:53:00;0.30;95.20
11538;DHT22;50159;49.426;11.182;2023-04-07T00:55:28;0.40;94.80
11538;DHT22;50159;49.426;11.182;2023-04-07T00:57:55;0.40;94.70
11538;DHT22;50159;49.426;11.182;2023-04-07T01:00:22;0.50;94.80
11538;DHT22;50159;49.426;11.182;2023-04-07T01:03:03;0.50;94.70
11538;DHT22;50159;49.426;11.182;2023-04-07T01:05:54;0.50;94.40
11538;DHT22;50159;49.426;11.182;2023-04-07T01:11:07;0.50;95.10
11538;DHT22;50159;49.426;11.182;2023-04-07T01:13:48;0.60;95.30
11538;DHT22;50159;49.426;11.182;2023-04-07T01:16:23;0.50;95.40
11538;DHT22;50159;49.426;11.182;2023-04-07T01:19:34;0.50;95.60
11538;DHT22;50159;49.426;11.182;2023-04-07T01:22:09;0.60;96.00
11538;DHT22;50159;49.426;11.182;2023-04-07T01:25:02;0.60;96.20
11538;DHT22;50159;49.426;11.182;2023-04-07T01:30:28;0.80;96.60
11538;DHT22;50159;49.426;11.182;2023-04-07T01:32:58;0.80;96.40
11538;DHT22;50159;49.426;11.182;2023-04-07T01:35:29;0.80;96.40
11538;DHT22;50159;49.426;11.182;2023-04-07T01:37:58;0.80;96.80
11538;DHT22;50159;49.426;11.182;2023-04-07T01:40:26;0.80;96.60
11538;DHT22;50159;49.426;11.182;2023-04-07T01:42:55;0.80;96.50
11538;DHT22;50159;49.426;11.182;2023-04-07T01:45:25;0.90;96.50
11538;DHT22;50159;49.426;11.182;2023-04-07T01:47:54;0.70;96.40
11538;DHT22;50159;49.426;11.182;2023-04-07T01:50:21;0.90;96.70
11538;DHT22;50159;49.426;11.182;2023-04-07T01:52:49;0.90;96.80
11538;DHT22;50159;49.426;11.182;2023-04-07T01:55:18;0.90;96.80
11538;DHT22;50159;49.426;11.182;2023-04-07T01:57:45;0.90;96.90
11538;DHT22;50159;49.426;11.182;2023-04-07T02:00:12;0.90;96.80
11538;DHT22;50159;49.426;11.182;2023-04-07T02:02:41;0.90;96.70
11538;DHT22;50159;49.426;11.182;2023-04-07T02:05:17;0.80;96.90
11538;DHT22;50159;49.426;11.182;2023-04-07T02:07:52;0.90;97.10
11538;DHT22;50159;49.426;11.182;2023-04-07T02:10:25;0.90;97.20
11538;DHT22;50159;49.426;11.182;2023-04-07T02:12:54;0.90;97.60
11538;DHT22;50159;49.426;11.182;2023-04-07T02:15:24;1.00;97.90
11538;DHT22;50159;49.426;11.182;2023-04-07T02:17:53;1.00;97.70
11538;DHT22;50159;49.426;11.182;2023-04-07T02:20:22;1.00;97.70
11538;DHT22;50159;49.426;11.182;2023-04-07T02:22:50;1.00;98.00
11538;DHT22;50159;49.426;11.182;2023-04-07T02:25:24;1.00;98.20
11538;DHT22;50159;49.426;11.182;2023-04-07T02:27:56;1.00;98.50
11538;DHT22;50159;49.426;11.182;2023-04-07T02:30:24;1.00;97.90
11538;DHT22;50159;49.426;11.182;2023-04-07T02:32:52;0.90;98.00
11538;DHT22;50159;49.426;11.182;2023-04-07T02:35:19;0.90;97.90
11538;DHT22;50159;49.426;11.182;2023-04-07T02:37:46;0.90;98.60
11538;DHT22;50159;49.426;11.182;2023-04-07T02:40:13;0.90;98.40
11538;DHT22;50159;49.426;11.182;2023-04-07T02:42:41;0.90;98.70
11538;DHT22;50159;49.426;11.182;2023-04-07T02:45:09;0.90;98.90
11538;DHT22;50159;49.426;11.182;2023-04-07T02:47:37;0.90;99.10
11538;DHT22;50159;49.426;11.182;2023-04-07T02:50:05;0.90;99.20
11538;DHT22;50159;49.426;11.182;2023-04-07T02:52:32;0.90;99.30
11538;DHT22;50159;49.426;11.182;2023-04-07T02:55:02;0.80;99.50
11538;DHT22;50159;49.426;11.182;2023-04-07T02:57:29;0.80;99.70
11538;DHT22;50159;49.426;11.182;2023-04-07T02:59:56;0.70;99.90
11538;DHT22;50159;49.426;11.182;2023-04-07T03:02:23;0.70;99.80
11538;DHT22;50159;49.426;11.182;2023-04-07T03:04:51;0.60;99.90
11538;DHT22;50159;49.426;11.182;2023-04-07T03:07:20;0.70;99.90
11538;DHT22;50159;49.426;11.182;2023-04-07T03:09:47;0.60;99.90
11538;DHT22;50159;49.426;11.182;2023-04-07T03:12:14;0.60;99.90
11538;DHT22;50159;49.426;11.182;2023-04-07T03:14:44;0.60;99.90
11538;DHT22;50159;49.426;11.182;2023-04-07T03:17:10;0.60;99.90
11538;DHT22;50159;49.426;11.182;2023-04-07T03:19:37;0.60;99.90
11538;DHT22;50159;49.426;11.182;2023-04-07T03:22:04;0.50;99.90
11538;DHT22;50159;49.426;11.182;2023-04-07T03:24:31;0.50;99.90
11538;DHT22;50159;49.426;11.182;2023-04-07T03:26:58;0.50;99.90
11538;DHT22;50159;49.426;11.182;2023-04-07T03:29:24;0.50;99.90
11538;DHT22;50159;49.426;11.182;2023-04-07T03:31:51;0.40;99.90
11538;DHT22;50159;49.426;11.182;2023-04-07T03:34:18;0.40;99.90
11538;DHT22;50159;49.426;11.182;2023-04-07T03:36:45;0.40;99.90
11538;DHT22;50159;49.426;11.182;2023-04-07T03:39:11;0.30;99.90
11538;DHT22;50159;49.426;11.182;2023-04-07T03:41:38;0.40;99.90
11538;DHT22;50159;49.426;11.182;2023-04-07T03:44:05;0.30;99.90
11538;DHT22;50159;49.426;11.182;2023-04-07T03:46:32;0.30;99.90
11538;DHT22;50159;49.426;11.182;2023-04-07T03:48:59;0.30;99.90
11538;DHT22;50159;49.426;11.182;2023-04-07T03:51:26;0.30;99.90
11538;DHT22;50159;49.426;11.182;2023-04-07T03:53:53;0.30;99.90
11538;DHT22;50159;49.426;11.182;2023-04-07T03:56:20;0.20;99.90
11538;DHT22;50159;49.426;11.182;2023-04-07T03:58:47;0.20;99.90
11538;DHT22;50159;49.426;11.182;2023-04-07T04:01:14;0.30;99.90
11538;DHT22;50159;49.426;11.182;2023-04-07T04:03:41;0.30;99.90
11538;DHT22;50159;49.426;11.182;2023-04-07T04:06:08;0.30;99.90
11538;DHT22;50159;49.426;11.182;2023-04-07T04:08:35;0.30;99.90
11538;DHT22;50159;49.426;11.182;2023-04-07T04:11:02;0.30;99.90
11538;DHT22;50159;49.426;11.182;2023-04-07T04:13:29;0.40;99.90
11538;DHT22;50159;49.426;11.182;2023-04-07T04:15:56;0.40;99.90
11538;DHT22;50159;49.426;11.182;2023-04-07T04:18:22;0.50;99.90
11538;DHT22;50159;49.426;11.182;2023-04-07T04:20:49;0.50;99.90
11538;DHT22;50159;49.426;11.182;2023-04-07T04:23:16;0.50;99.90
11538;DHT22;50159;49.426;11.182;2023-04-07T04:25:43;0.50;99.90
11538;DHT22;50159;49.426;11.182;2023-04-07T04:28:09;0.50;99.90
11538;DHT22;50159;49.426;11.182;2023-04-07T04:30:36;0.50;99.90
11538;DHT22;50159;49.426;11.182;2023-04-07T04:33:03;0.50;99.90
11538;DHT22;50159;49.426;11.182;2023-04-07T04:35:30;0.40;99.90
11538;DHT22;50159;49.426;11.182;2023-04-07T04:37:57;0.40;99.90
11538;DHT22;50159;49.426;11.182;2023-04-07T04:40:23;0.40;99.90
11538;DHT22;50159;49.426;11.182;2023-04-07T04:42:50;0.40;99.90
11538;DHT22;50159;49.426;11.182;2023-04-07T04:45:17;0.40;99.90
11538;DHT22;50159;49.426;11.182;2023-04-07T04:47:44;0.50;99.90
11538;DHT22;50159;49.426;11.182;2023-04-07T04:50:11;0.50;99.90
11538;DHT22;50159;49.426;11.182;2023-04-07T04:52:38;0.60;99.90
11538;DHT22;50159;49.426;11.182;2023-04-07T04:55:05;0.70;99.90
11538;DHT22;50159;49.426;11.182;2023-04-07T04:57:32;0.70;99.90
11538;DHT22;50159;49.426;11.182;2023-04-07T05:00:02;0.80;99.90
11538;DHT22;50159;49.426;11.182;2023-04-07T05:02:29;0.90;99.90
11538;DHT22;50159;49.426;11.182;2023-04-07T05:04:57;1.00;99.90
11538;DHT22;50159;49.426;11.182;2023-04-07T05:07:24;1.00;99.90
11538;DHT22;50159;49.426;11.182;2023-04-07T05:09:51;1.10;99.90
11538;DHT22;50159;49.426;11.182;2023-04-07T05:12:18;1.20;99.90
11538;DHT22;50159;49.426;11.182;2023-04-07T05:14:44;1.30;99.90
11538;DHT22;50159;49.426;11.182;2023-04-07T05:17:11;1.40;99.90
11538;DHT22;50159;49.426;11.182;2023-04-07T05:19:38;1.50;99.90
11538;DHT22;50159;49.426;11.182;2023-04-07T05:22:05;1.60;99.90
11538;DHT22;50159;49.426;11.182;2023-04-07T05:24:32;1.70;99.90
11538;DHT22;50159;49.426;11.182;2023-04-07T05:26:59;1.80;99.90
11538;DHT22;50159;49.426;11.182;2023-04-07T05:29:27;1.90;99.90
11538;DHT22;50159;49.426;11.182;2023-04-07T05:31:54;2.00;99.70
11538;DHT22;50159;49.426;11.182;2023-04-07T05:34:20;2.10;99.70
11538;DHT22;50159;49.426;11.182;2023-04-07T05:36:47;2.20;99.10
11538;DHT22;50159;49.426;11.182;2023-04-07T05:39:14;2.40;98.50
11538;DHT22;50159;49.426;11.182;2023-04-07T05:41:41;2.40;97.70
11538;DHT22;50159;49.426;11.182;2023-04-07T05:44:08;2.50;96.90
11538;DHT22;50159;49.426;11.182;2023-04-07T05:46:34;2.60;96.40
11538;DHT22;50159;49.426;11.182;2023-04-07T05:49:02;2.70;96.10
11538;DHT22;50159;49.426;11.182;2023-04-07T05:51:45;2.80;95.90
11538;DHT22;50159;49.426;11.182;2023-04-07T05:54:14;2.90;96.00
11538;DHT22;50159;49.426;11.182;2023-04-07T05:56:41;3.10;95.80
11538;DHT22;50159;49.426;11.182;2023-04-07T05:59:08;3.30;95.10
11538;DHT22;50159;49.426;11.182;2023-04-07T06:01:35;3.50;95.00
11538;DHT22;50159;49.426;11.182;2023-04-07T06:04:02;3.60;94.80
11538;DHT22;50159;49.426;11.182;2023-04-07T06:06:29;3.80;93.80
11538;DHT22;50159;49.426;11.182;2023-04-07T06:08:56;3.90;93.10
11538;DHT22;50159;49.426;11.182;2023-04-07T06:11:24;4.00;92.70
11538;DHT22;50159;49.426;11.182;2023-04-07T06:13:51;4.20;92.20
11538;DHT22;50159;49.426;11.182;2023-04-07T06:16:18;4.30;91.00
11538;DHT22;50159;49.426;11.182;2023-04-07T06:18:45;4.40;88.60
11538;DHT22;50159;49.426;11.182;2023-04-07T06:21:12;4.50;89.80
11538;DHT22;50159;49.426;11.182;2023-04-07T06:23:39;4.60;87.70
11538;DHT22;50159;49.426;11.182;2023-04-07T06:26:09;4.70;87.00
11538;DHT22;50159;49.426;11.182;2023-04-07T06:28:37;4.80;87.10
11538;DHT22;50159;49.426;11.182;2023-04-07T06:31:05;5.00;86.00
11538;DHT22;50159;49.426;11.182;2023-04-07T06:33:34;5.10;84.30
11538;DHT22;50159;49.426;11.182;2023-04-07T06:36:00;5.20;82.90
11538;DHT22;50159;49.426;11.182;2023-04-07T06:38:28;5.30;82.00
11538;DHT22;50159;49.426;11.182;2023-04-07T06:40:55;5.40;79.70
11538;DHT22;50159;49.426;11.182;2023-04-07T06:43:22;5.40;79.10
11538;DHT22;50159;49.426;11.182;2023-04-07T06:45:49;5.50;76.20
11538;DHT22;50159;49.426;11.182;2023-04-07T06:48:16;5.50;77.00
11538;DHT22;50159;49.426;11.182;2023-04-07T06:50:49;5.60;75.90
11538;DHT22;50159;49.426;11.182;2023-04-07T06:53:16;5.70;75.40
11538;DHT22;50159;49.426;11.182;2023-04-07T06:55:43;6.00;74.50
11538;DHT22;50159;49.426;11.182;2023-04-07T06:58:10;6.10;73.60
11538;DHT22;50159;49.426;11.182;2023-04-07T07:00:37;6.20;72.50
11538;DHT22;50159;49.426;11.182;2023-04-07T07:03:04;6.30;71.90
11538;DHT22;50159;49.426;11.182;2023-04-07T07:05:32;6.50;72.80
11538;DHT22;50159;49.426;11.182;2023-04-07T07:07:59;6.80;73.60
11538;DHT22;50159;49.426;11.182;2023-04-07T07:10:25;7.10;72.20
11538;DHT22;50159;49.426;11.182;2023-04-07T07:12:52;7.30;71.10
11538;DHT22;50159;49.426;11.182;2023-04-07T07:15:19;7.50;71.00
11538;DHT22;50159;49.426;11.182;2023-04-07T07:17:46;7.70;69.90
11538;DHT22;50159;49.426;11.182;2023-04-07T07:20:13;8.00;69.70
11538;DHT22;50159;49.426;11.182;2023-04-07T07:22:40;8.10;66.40
11538;DHT22;50159;49.426;11.182;2023-04-07T07:25:07;8.30;67.00
11538;DHT22;50159;49.426;11.182;2023-04-07T07:27:34;8.50;64.10
11538;DHT22;50159;49.426;11.182;2023-04-07T07:30:00;8.50;60.80
11538;DHT22;50159;49.426;11.182;2023-04-07T07:32:27;8.50;60.80
11538;DHT22;50159;49.426;11.182;2023-04-07T07:34:54;8.60;60.00
11538;DHT22;50159;49.426;11.182;2023-04-07T07:37:21;8.70;59.50
11538;DHT22;50159;49.426;11.182;2023-04-07T07:39:48;8.90;59.40
11538;DHT22;50159;49.426;11.182;2023-04-07T07:42:15;9.00;58.40
11538;DHT22;50159;49.426;11.182;2023-04-07T07:44:41;9.00;56.60
11538;DHT22;50159;49.426;11.182;2023-04-07T07:47:08;9.00;55.70
11538;DHT22;50159;49.426;11.182;2023-04-07T07:49:35;9.00;55.70
11538;DHT22;50159;49.426;11.182;2023-04-07T07:52:02;9.00;54.70
11538;DHT22;50159;49.426;11.182;2023-04-07T07:54:32;9.30;56.70
11538;DHT22;50159;49.426;11.182;2023-04-07T07:56:59;9.30;53.50
11538;DHT22;50159;49.426;11.182;2023-04-07T07:59:25;9.20;54.00
11538;DHT22;50159;49.426;11.182;2023-04-07T08:01:52;9.30;55.50
11538;DHT22;50159;49.426;11.182;2023-04-07T08:04:19;9.60;55.70
11538;DHT22;50159;49.426;11.182;2023-04-07T08:06:51;9.80;55.50
11538;DHT22;50159;49.426;11.182;2023-04-07T08:09:18;10.00;54.00
11538;DHT22;50159;49.426;11.182;2023-04-07T08:11:45;10.20;53.30
11538;DHT22;50159;49.426;11.182;2023-04-07T08:14:14;10.30;52.70
11538;DHT22;50159;49.426;11.182;2023-04-07T08:16:41;10.40;52.70
11538;DHT22;50159;49.426;11.182;2023-04-07T08:19:09;10.40;52.70
11538;DHT22;50159;49.426;11.182;2023-04-07T08:21:36;10.50;52.90
11538;DHT22;50159;49.426;11.182;2023-04-07T08:24:03;10.60;53.60
11538;DHT22;50159;49.426;11.182;2023-04-07T08:26:31;10.60;52.80
11538;DHT22;50159;49.426;11.182;2023-04-07T08:28:58;10.60;51.70
11538;DHT22;50159;49.426;11.182;2023-04-07T08:31:25;10.60;51.70
11538;DHT22;50159;49.426;11.182;2023-04-07T08:33:51;10.60;51.40
11538;DHT22;50159;49.426;11.182;2023-04-07T08:36:24;10.80;51.80
11538;DHT22;50159;49.426;11.182;2023-04-07T08:38:52;10.80;51.20
11538;DHT22;50159;49.426;11.182;2023-04-07T08:41:39;11.00;52.20
11538;DHT22;50159;49.426;11.182;2023-04-07T08:44:07;11.40;53.20
11538;DHT22;50159;49.426;11.182;2023-04-07T08:46:38;11.80;52.90
11538;DHT22;50159;49.426;11.182;2023-04-07T08:49:08;12.10;51.80
11538;DHT22;50159;49.426;11.182;2023-04-07T08:51:37;12.30;50.40
11538;DHT22;50159;49.426;11.182;2023-04-07T08:54:12;12.20;49.10
11538;DHT22;50159;49.426;11.182;2023-04-07T08:56:42;12.10;49.30
11538;DHT22;50159;49.426;11.182;2023-04-07T08:59:13;11.90;49.40
11538;DHT22;50159;49.426;11.182;2023-04-07T09:01:44;11.90;49.80
11538;DHT22;50159;49.426;11.182;2023-04-07T09:04:13;11.90;48.90
11538;DHT22;50159;49.426;11.182;2023-04-07T09:06:40;12.00;48.50
11538;DHT22;50159;49.426;11.182;2023-04-07T09:09:06;12.00;47.80
11538;DHT22;50159;49.426;11.182;2023-04-07T09:11:36;12.20;48.50
11538;DHT22;50159;49.426;11.182;2023-04-07T09:14:05;12.30;48.30
11538;DHT22;50159;49.426;11.182;2023-04-07T09:16:33;12.40;48.00
11538;DHT22;50159;49.426;11.182;2023-04-07T09:19:00;12.50;47.30
11538;DHT22;50159;49.426;11.182;2023-04-07T09:21:49;12.60;47.70
11538;DHT22;50159;49.426;11.182;2023-04-07T09:24:35;12.50;46.10
11538;DHT22;50159;49.426;11.182;2023-04-07T09:27:14;12.30;46.10
11538;DHT22;50159;49.426;11.182;2023-04-07T09:29:45;12.30;46.10
11538;DHT22;50159;49.426;11.182;2023-04-07T09:32:36;12.50;47.10
11538;DHT22;50159;49.426;11.182;2023-04-07T09:35:09;12.90;46.90
11538;DHT22;50159;49.426;11.182;2023-04-07T09:37:36;13.00;46.10
11538;DHT22;50159;49.426;11.182;2023-04-07T09:40:04;13.00;45.60
11538;DHT22;50159;49.426;11.182;2023-04-07T09:42:31;13.10;44.70
11538;DHT22;50159;49.426;11.182;2023-04-07T09:45:01;13.30;44.60
11538;DHT22;50159;49.426;11.182;2023-04-07T09:47:31;13.60;44.90
11538;DHT22;50159;49.426;11.182;2023-04-07T09:49:58;13.50;42.70
11538;DHT22;50159;49.426;11.182;2023-04-07T09:52:51;13.60;43.20
11538;DHT22;50159;49.426;11.182;2023-04-07T09:55:20;13.80;43.20
11538;DHT22;50159;49.426;11.182;2023-04-07T09:57:52;13.80;43.30
11538;DHT22;50159;49.426;11.182;2023-04-07T10:00:21;13.80;42.40
11538;DHT22;50159;49.426;11.182;2023-04-07T10:02:49;14.00;44.10
11538;DHT22;50159;49.426;11.182;2023-04-07T10:05:17;14.30;43.60
11538;DHT22;50159;49.426;11.182;2023-04-07T10:07:47;14.40;41.40
11538;DHT22;50159;49.426;11.182;2023-04-07T10:10:14;14.30;40.90
11538;DHT22;50159;49.426;11.182;2023-04-07T10:12:41;14.50;40.90
11538;DHT22;50159;49.426;11.182;2023-04-07T10:15:12;14.40;40.30
11538;DHT22;50159;49.426;11.182;2023-04-07T10:17:45;14.50;40.80
11538;DHT22;50159;49.426;11.182;2023-04-07T10:20:17;14.80;40.90
11538;DHT22;50159;49.426;11.182;2023-04-07T10:22:48;14.80;39.20
11538;DHT22;50159;49.426;11.182;2023-04-07T10:25:19;15.00;41.70
11538;DHT22;50159;49.426;11.182;2023-04-07T10:27:56;15.30;41.60
11538;DHT22;50159;49.426;11.182;2023-04-07T10:30:30;15.40;39.80
11538;DHT22;50159;49.426;11.182;2023-04-07T10:32:58;15.40;39.70
11538;DHT22;50159;49.426;11.182;2023-04-07T10:35:25;15.40;39.30
11538;DHT22;50159;49.426;11.182;2023-04-07T10:40:34;15.70;39.30
11538;DHT22;50159;49.426;11.182;2023-04-07T10:43:02;16.00;39.40
11538;DHT22;50159;49.426;11.182;2023-04-07T10:48:15;15.90;35.90
11538;DHT22;50159;49.426;11.182;2023-04-07T10:50:45;15.90;37.20
11538;DHT22;50159;49.426;11.182;2023-04-07T10:53:32;16.00;37.60
11538;DHT22;50159;49.426;11.182;2023-04-07T10:56:03;16.30;37.60
11538;DHT22;50159;49.426;11.182;2023-04-07T10:58:32;16.50;37.70
11538;DHT22;50159;49.426;11.182;2023-04-07T11:03:30;17.00;36.50
11538;DHT22;50159;49.426;11.182;2023-04-07T11:06:12;17.20;37.30
11538;DHT22;50159;49.426;11.182;2023-04-07T11:08:41;17.10;35.70
11538;DHT22;50159;49.426;11.182;2023-04-07T11:11:37;16.90;35.90
11538;DHT22;50159;49.426;11.182;2023-04-07T11:14:06;17.00;36.60
11538;DHT22;50159;49.426;11.182;2023-04-07T11:16:38;16.90;36.10
11538;DHT22;50159;49.426;11.182;2023-04-07T11:19:07;16.70;34.20
11538;DHT22;50159;49.426;11.182;2023-04-07T11:21:34;16.70;37.30
11538;DHT22;50159;49.426;11.182;2023-04-07T11:24:02;16.80;36.90
11538;DHT22;50159;49.426;11.182;2023-04-07T11:26:36;16.80;36.50
11538;DHT22;50159;49.426;11.182;2023-04-07T11:29:04;17.00;35.10
11538;DHT22;50159;49.426;11.182;2023-04-07T11:31:31;16.90;35.90
11538;DHT22;50159;49.426;11.182;2023-04-07T11:34:01;16.70;36.10
11538;DHT22;50159;49.426;11.182;2023-04-07T11:36:36;16.50;35.30
11538;DHT22;50159;49.426;11.182;2023-04-07T11:39:04;16.00;35.90
11538;DHT22;50159;49.426;11.182;2023-04-07T11:41:32;15.60;36.40
11538;DHT22;50159;49.426;11.182;2023-04-07T11:44:07;15.60;36.90
11538;DHT22;50159;49.426;11.182;2023-04-07T11:46:36;15.30;37.10
11538;DHT22;50159;49.426;11.182;2023-04-07T11:49:18;15.10;38.50
11538;DHT22;50159;49.426;11.182;2023-04-07T11:51:44;15.10;38.70
11538;DHT22;50159;49.426;11.182;2023-04-07T11:54:12;15.10;38.00
11538;DHT22;50159;49.426;11.182;2023-04-07T11:56:44;15.10;38.60
11538;DHT22;50159;49.426;11.182;2023-04-07T11:59:20;15.70;39.80
11538;DHT22;50159;49.426;11.182;2023-04-07T12:01:49;16.20;37.50
11538;DHT22;50159;49.426;11.182;2023-04-07T12:04:19;16.70;38.60
11538;DHT22;50159;49.426;11.182;2023-04-07T12:06:47;16.70;37.00
11538;DHT22;50159;49.426;11.182;2023-04-07T12:11:57;16.00;35.80
11538;DHT22;50159;49.426;11.182;2023-04-07T12:14:25;15.70;37.20
11538;DHT22;50159;49.426;11.182;2023-04-07T12:16:53;15.60;37.00
11538;DHT22;50159;49.426;11.182;2023-04-07T12:19:25;15.50;37.50
11538;DHT22;50159;49.426;11.182;2023-04-07T12:21:54;15.50;38.10
11538;DHT22;50159;49.426;11.182;2023-04-07T12:24:22;15.80;38.60
11538;DHT22;50159;49.426;11.182;2023-04-07T12:26:49;16.00;37.30
11538;DHT22;50159;49.426;11.182;2023-04-07T12:29:16;16.10;38.50
11538;DHT22;50159;49.426;11.182;2023-04-07T12:31:45;16.10;37.30
11538;DHT22;50159;49.426;11.182;2023-04-07T12:34:14;16.00;37.50
11538;DHT22;50159;49.426;11.182;2023-04-07T12:36:41;15.60;37.40
11538;DHT22;50159;49.426;11.182;2023-04-07T12:39:09;15.40;37.30
11538;DHT22;50159;49.426;11.182;2023-04-07T12:41:35;15.10;38.00
11538;DHT22;50159;49.426;11.182;2023-04-07T12:44:04;14.90;38.40
11538;DHT22;50159;49.426;11.182;2023-04-07T12:46:31;14.80;39.60
11538;DHT22;50159;49.426;11.182;2023-04-07T12:48:58;14.80;39.70
11538;DHT22;50159;49.426;11.182;2023-04-07T12:51:25;15.00;40.00
11538;DHT22;50159;49.426;11.182;2023-04-07T12:53:52;15.00;40.70
11538;DHT22;50159;49.426;11.182;2023-04-07T12:56:20;15.20;40.70
11538;DHT22;50159;49.426;11.182;2023-04-07T12:58:49;15.20;40.70
11538;DHT22;50159;49.426;11.182;2023-04-07T13:01:16;15.20;40.60
11538;DHT22;50159;49.426;11.182;2023-04-07T13:03:43;15.20;40.10
11538;DHT22;50159;49.426;11.182;2023-04-07T13:06:10;15.20;39.50
11538;DHT22;50159;49.426;11.182;2023-04-07T13:08:38;15.20;39.00
11538;DHT22;50159;49.426;11.182;2023-04-07T13:11:06;15.10;39.50
11538;DHT22;50159;49.426;11.182;2023-04-07T13:13:33;15.00;39.70
11538;DHT22;50159;49.426;11.182;2023-04-07T13:15:59;14.90;40.20
11538;DHT22;50159;49.426;11.182;2023-04-07T13:18:27;15.00;41.70
11538;DHT22;50159;49.426;11.182;2023-04-07T13:20:54;15.10;41.20
11538;DHT22;50159;49.426;11.182;2023-04-07T13:23:41;15.30;40.40
11538;DHT22;50159;49.426;11.182;2023-04-07T13:26:10;15.40;39.70
11538;DHT22;50159;49.426;11.182;2023-04-07T13:28:37;15.60;39.90
11538;DHT22;50159;49.426;11.182;2023-04-07T13:31:04;15.90;40.00
11538;DHT22;50159;49.426;11.182;2023-04-07T13:33:30;16.00;39.70
11538;DHT22;50159;49.426;11.182;2023-04-07T13:35:57;16.10;40.30
11538;DHT22;50159;49.426;11.182;2023-04-07T13:38:24;15.90;39.20
11538;DHT22;50159;49.426;11.182;2023-04-07T13:40:51;15.50;38.80
11538;DHT22;50159;49.426;11.182;2023-04-07T13:43:18;15.40;40.40
11538;DHT22;50159;49.426;11.182;2023-04-07T13:45:45;15.40;39.50
11538;DHT22;50159;49.426;11.182;2023-04-07T13:48:12;15.30;39.20
11538;DHT22;50159;49.426;11.182;2023-04-07T13:50:39;15.20;40.00
11538;DHT22;50159;49.426;11.182;2023-04-07T13:53:06;15.30;40.00
11538;DHT22;50159;49.426;11.182;2023-04-07T13:55:33;15.20;39.40
11538;DHT22;50159;49.426;11.182;2023-04-07T13:57:59;15.10;39.80
11538;DHT22;50159;49.426;11.182;2023-04-07T14:00:26;15.10;40.60
11538;DHT22;50159;49.426;11.182;2023-04-07T14:02:53;15.10;40.40
11538;DHT22;50159;49.426;11.182;2023-04-07T14:05:22;15.00;40.80
11538;DHT22;50159;49.426;11.182;2023-04-07T14:07:48;14.90;40.60
11538;DHT22;50159;49.426;11.182;2023-04-07T14:10:16;14.80;41.20
11538;DHT22;50159;49.426;11.182;2023-04-07T14:12:43;14.70;41.60
11538;DHT22;50159;49.426;11.182;2023-04-07T14:15:10;14.80;41.50
11538;DHT22;50159;49.426;11.182;2023-04-07T14:17:37;14.90;41.60
11538;DHT22;50159;49.426;11.182;2023-04-07T14:20:04;15.00;42.00
11538;DHT22;50159;49.426;11.182;2023-04-07T14:22:31;15.20;42.30
11538;DHT22;50159;49.426;11.182;2023-04-07T14:24:58;15.50;41.00
11538;DHT22;50159;49.426;11.182;2023-04-07T14:27:25;15.40;40.90
11538;DHT22;50159;49.426;11.182;2023-04-07T14:29:54;15.10;40.90
11538;DHT22;50159;49.426;11.182;2023-04-07T14:32:23;15.00;42.20
11538;DHT22;50159;49.426;11.182;2023-04-07T14:34:50;15.10;42.90
11538;DHT22;50159;49.426;11.182;2023-04-07T14:37:16;15.30;43.10
11538;DHT22;50159;49.426;11.182;2023-04-07T14:39:47;15.60;43.70
11538;DHT22;50159;49.426;11.182;2023-04-07T14:42:27;16.60;44.70
11538;DHT22;50159;49.426;11.182;2023-04-07T14:44:55;18.40;42.80
11538;DHT22;50159;49.426;11.182;2023-04-07T14:47:22;19.90;38.20
11538;DHT22;50159;49.426;11.182;2023-04-07T14:49:49;21.20;35.80
11538;DHT22;50159;49.426;11.182;2023-04-07T14:52:19;21.60;34.40
11538;DHT22;50159;49.426;11.182;2023-04-07T14:54:47;21.50;33.70
11538;DHT22;50159;49.426;11.182;2023-04-07T14:57:14;21.10;32.60
11538;DHT22;50159;49.426;11.182;2023-04-07T14:59:41;21.00;34.60
11538;DHT22;50159;49.426;11.182;2023-04-07T15:02:08;21.10;33.90
11538;DHT22;50159;49.426;11.182;2023-04-07T15:04:35;21.40;34.30
11538;DHT22;50159;49.426;11.182;2023-04-07T15:07:02;21.70;34.50
11538;DHT22;50159;49.426;11.182;2023-04-07T15:09:30;21.80;33.50
11538;DHT22;50159;49.426;11.182;2023-04-07T15:11:57;21.70;32.40
11538;DHT22;50159;49.426;11.182;2023-04-07T15:14:25;21.00;32.90
11538;DHT22;50159;49.426;11.182;2023-04-07T15:16:52;20.60;33.50
11538;DHT22;50159;49.426;11.182;2023-04-07T15:19:19;20.80;33.80
11538;DHT22;50159;49.426;11.182;2023-04-07T15:21:46;21.00;33.00
11538;DHT22;50159;49.426;11.182;2023-04-07T15:24:12;21.30;32.80
11538;DHT22;50159;49.426;11.182;2023-04-07T15:26:42;21.40;32.50
11538;DHT22;50159;49.426;11.182;2023-04-07T15:29:08;21.60;32.50
11538;DHT22;50159;49.426;11.182;2023-04-07T15:31:35;22.00;33.40
11538;DHT22;50159;49.426;11.182;2023-04-07T15:34:02;22.40;32.80
11538;DHT22;50159;49.426;11.182;2023-04-07T15:36:29;22.60;31.80
11538;DHT22;50159;49.426;11.182;2023-04-07T15:39:01;22.70;31.30
11538;DHT22;50159;49.426;11.182;2023-04-07T15:41:30;22.50;31.00
11538;DHT22;50159;49.426;11.182;2023-04-07T15:43:59;22.30;31.90
11538;DHT22;50159;49.426;11.182;2023-04-07T15:46:26;21.80;32.00
11538;DHT22;50159;49.426;11.182;2023-04-07T15:48:54;21.20;32.80